createdAt,value
2022-08-05T00:02:27.493Z,101693.38
2022-08-05T00:04:56.192Z,101696.63
2022-08-05T00:07:58.624Z,101701.13
2022-08-05T00:10:11.635Z,101696.03
2022-08-05T00:12:56.079Z,101706.09
2022-08-05T00:15:55.392Z,101717.81
2022-08-05T00:18:21.289Z,101705.38
2022-08-05T00:20:48.970Z,101707.59
2022-08-05T00:23:16.120Z,101709.56
2022-08-05T00:25:46.153Z,101717.03
2022-08-05T00:28:13.419Z,101719.59
2022-08-05T00:30:41.087Z,101719.47
2022-08-05T00:33:15.702Z,101719.59
2022-08-05T00:36:15.097Z,101716.63
2022-08-05T00:38:44.434Z,101716.19
2022-08-05T00:41:12.832Z,101720.59
2022-08-05T00:43:46.948Z,101704.72
2022-08-05T00:46:14.264Z,101707.66
2022-08-05T00:48:51.243Z,101706.81
2022-08-05T00:51:50.342Z,101706.06
2022-08-05T00:54:06.353Z,101705.47
2022-08-05T00:56:34.499Z,101710.75
2022-08-05T00:59:02.108Z,101708.31
2022-08-05T01:01:48.116Z,101709.44
2022-08-05T01:04:16.117Z,101717.63
2022-08-05T01:06:48.006Z,101711.66
2022-08-05T01:09:20.097Z,101715.56
2022-08-05T01:11:51.760Z,101721.22
2022-08-05T01:14:27.940Z,101715.38
2022-08-05T01:17:03.442Z,101713.72
2022-08-05T01:20:01.387Z,101717.66
2022-08-05T01:22:40.326Z,101720.34
2022-08-05T01:25:39.845Z,101724.75
2022-08-05T01:28:18.290Z,101727.94
2022-08-05T01:30:55.095Z,101722.97
2022-08-05T01:33:26.339Z,101709.44
2022-08-05T01:35:55.657Z,101717.88
2022-08-05T01:38:27.060Z,101717.41
2022-08-05T01:40:58.830Z,101714.81
2022-08-05T01:43:28.782Z,101716.19
2022-08-05T01:45:57.108Z,101724.34
2022-08-05T01:48:26.932Z,101730.22
2022-08-05T01:50:56.642Z,101736.69
2022-08-05T01:53:58.259Z,101730.47
2022-08-05T01:58:14.754Z,101710.69
2022-08-05T01:59:04.924Z,101719.38
2022-08-05T02:01:38.881Z,101725.69
2022-08-05T02:04:10.333Z,101740.38
2022-08-05T02:06:38.827Z,101744.13
2022-08-05T02:09:07.247Z,101744.38
2022-08-05T02:11:47.842Z,101740.72
2022-08-05T02:14:27.496Z,101744.50
2022-08-05T02:16:59.172Z,101738.53
2022-08-05T02:19:34.341Z,101735.34
2022-08-05T02:22:09.715Z,101738.88
2022-08-05T02:24:56.036Z,101745.34
2022-08-05T02:27:30.023Z,101741.94
2022-08-05T02:30:13.829Z,101738.75
2022-08-05T02:32:42.435Z,101735.47
2022-08-05T02:35:13.597Z,101735.59
2022-08-05T02:37:42.998Z,101739.38
2022-08-05T02:40:17.219Z,101739.38
2022-08-05T02:42:52.757Z,101736.81
2022-08-05T02:45:24.171Z,101734.13
2022-08-05T02:48:07.073Z,101737.75
2022-08-05T02:50:44.089Z,101743.03
2022-08-05T02:53:18.600Z,101736.06
2022-08-05T02:55:59.650Z,101731.78
2022-08-05T02:58:27.571Z,101728.50
2022-08-05T03:01:02.512Z,101725.84
2022-08-05T03:03:33.669Z,101731.50
2022-08-05T03:06:56.735Z,101722.75
2022-08-05T03:08:52.176Z,101720.88
2022-08-05T03:11:57.334Z,101711.00
2022-08-05T03:14:08.647Z,101712.22
2022-08-05T03:16:41.398Z,101713.84
2022-08-05T03:19:17.425Z,101715.53
2022-08-05T03:21:55.651Z,101716.53
2022-08-05T03:24:30.034Z,101715.75
2022-08-05T03:26:58.252Z,101721.38
2022-08-05T03:29:44.452Z,101704.41
2022-08-05T03:32:15.422Z,101709.16
2022-08-05T03:34:42.601Z,101712.94
2022-08-05T03:37:18.845Z,101709.63
2022-08-05T03:39:59.073Z,101693.06
2022-08-05T03:42:28.901Z,101705.50
2022-08-05T03:44:56.253Z,101703.66
2022-08-05T03:47:25.659Z,101710.97
2022-08-05T03:49:58.024Z,101714.25
2022-08-05T03:52:37.864Z,101715.97
2022-08-05T03:56:10.875Z,101716.91
2022-08-05T03:58:14.567Z,101727.88
2022-08-05T04:00:44.236Z,101737.66
2022-08-05T04:03:28.174Z,101735.06
2022-08-05T04:05:56.734Z,101748.84
2022-08-05T04:08:34.682Z,101738.66
2022-08-05T04:11:05.262Z,101744.25
2022-08-05T04:13:50.120Z,101730.63
2022-08-05T04:16:24.275Z,101743.06
2022-08-05T04:18:54.874Z,101743.69
2022-08-05T04:22:09.431Z,101747.22
2022-08-05T04:24:19.195Z,101742.81
2022-08-05T04:26:48.934Z,101748.19
2022-08-05T04:29:15.808Z,101738.66
2022-08-05T04:31:42.910Z,101730.38
2022-08-05T04:34:31.618Z,101736.94
2022-08-05T04:36:58.172Z,101738.91
2022-08-05T04:39:25.138Z,101735.44
2022-08-05T04:41:54.728Z,101734.50
2022-08-05T04:44:30.304Z,101730.00
2022-08-05T04:46:58.462Z,101736.22
2022-08-05T04:50:02.152Z,101730.84
2022-08-05T04:52:14.024Z,101736.78
2022-08-05T04:54:42.000Z,101741.28
2022-08-05T04:57:08.895Z,101745.19
2022-08-05T04:59:38.274Z,101746.25
2022-08-05T05:02:36.334Z,101753.81
2022-08-05T05:05:02.737Z,101754.19
2022-08-05T05:07:32.471Z,101748.59
2022-08-05T05:10:04.343Z,101740.91
2022-08-05T05:12:31.368Z,101742.72
2022-08-05T05:14:58.458Z,101740.66
2022-08-05T05:17:55.909Z,101749.97
2022-08-05T05:20:13.976Z,101754.97
2022-08-05T05:22:41.206Z,101760.84
2022-08-05T05:25:16.600Z,101753.41
2022-08-05T05:27:53.697Z,101755.28
2022-08-05T05:30:30.593Z,101746.03
2022-08-05T05:33:09.443Z,101758.75
2022-08-05T05:35:45.211Z,101757.81
2022-08-05T05:38:13.383Z,101764.16
2022-08-05T05:40:48.302Z,101764.28
2022-08-05T05:43:22.079Z,101768.53
2022-08-05T05:46:06.861Z,101761.44
2022-08-05T05:48:44.359Z,101757.66
2022-08-05T05:51:18.607Z,101765.47
2022-08-05T05:53:54.184Z,101752.25
2022-08-05T05:56:33.138Z,101753.09
2022-08-05T05:59:03.403Z,101750.09
2022-08-05T06:01:38.010Z,101735.50
2022-08-05T06:04:07.036Z,101737.41
2022-08-05T06:06:35.791Z,101733.81
2022-08-05T06:09:03.860Z,101739.81
2022-08-05T06:11:31.114Z,101738.69
2022-08-05T06:13:58.086Z,101750.56
2022-08-05T06:16:32.850Z,101745.78
2022-08-05T06:19:06.003Z,101748.91
2022-08-05T06:21:38.887Z,101744.91
2022-08-05T06:24:12.222Z,101749.19
2022-08-05T06:26:39.884Z,101760.16
2022-08-05T06:29:25.423Z,101756.94
2022-08-05T06:32:06.016Z,101760.56
2022-08-05T06:34:48.573Z,101762.53
2022-08-05T06:37:56.480Z,101762.97
2022-08-05T06:40:10.041Z,101765.78
2022-08-05T06:42:36.962Z,101775.72
2022-08-05T06:45:08.867Z,101770.00
2022-08-05T06:48:37.015Z,101776.31
2022-08-05T06:50:23.042Z,101784.75
2022-08-05T06:53:03.525Z,101795.97
2022-08-05T06:55:38.446Z,101797.94
2022-08-05T06:58:29.565Z,101795.03
2022-08-05T07:00:58.109Z,101804.09
2022-08-05T07:03:27.984Z,101805.66
2022-08-05T07:06:05.674Z,101796.34
2022-08-05T07:08:42.775Z,101800.22
2022-08-05T07:11:15.134Z,101809.59
2022-08-05T07:14:01.482Z,101813.06
2022-08-05T07:17:56.390Z,101813.19
2022-08-05T07:22:28.389Z,101816.81
2022-08-05T07:24:59.460Z,101819.59
2022-08-05T07:27:27.702Z,101826.34
2022-08-05T07:30:28.428Z,101833.41
2022-08-05T07:32:57.797Z,101830.25
2022-08-05T07:36:04.400Z,101829.19
2022-08-05T07:38:12.417Z,101839.38
2022-08-05T07:40:55.527Z,101838.94
2022-08-05T07:43:27.006Z,101838.22
2022-08-05T07:45:56.437Z,101838.63
2022-08-05T07:49:02.857Z,101840.59
2022-08-05T07:51:23.613Z,101845.31
2022-08-05T07:53:59.328Z,101848.22
2022-08-05T07:57:00.004Z,101847.19
2022-08-05T07:59:17.290Z,101857.13
2022-08-05T08:01:52.419Z,101852.03
2022-08-05T08:04:37.575Z,101859.25
2022-08-05T08:07:07.486Z,101856.31
2022-08-05T08:09:34.461Z,101860.78
2022-08-05T08:12:10.630Z,101851.91
2022-08-05T08:14:41.428Z,101852.44
2022-08-05T08:17:16.091Z,101852.44
2022-08-05T08:20:21.790Z,101860.50
2022-08-05T08:22:32.393Z,101867.78
2022-08-05T08:25:02.860Z,101866.16
2022-08-05T08:27:40.402Z,101870.16
2022-08-05T08:30:30.137Z,101871.38
2022-08-05T08:33:08.266Z,101872.63
2022-08-05T08:35:41.493Z,101874.78
2022-08-05T08:38:32.132Z,101887.31
2022-08-05T08:41:07.403Z,101888.75
2022-08-05T08:45:23.704Z,101880.53
2022-08-05T08:46:24.448Z,101885.72
2022-08-05T08:49:06.157Z,101888.25
2022-08-05T08:52:03.648Z,101882.44
2022-08-05T08:54:30.836Z,101878.09
2022-08-05T08:57:00.136Z,101886.06
2022-08-05T08:59:33.837Z,101885.16
2022-08-05T09:02:01.569Z,101892.47
2022-08-05T09:04:30.308Z,101887.06
2022-08-05T09:06:57.598Z,101901.31
2022-08-05T09:09:26.092Z,101897.41
2022-08-05T09:12:20.298Z,101899.72
2022-08-05T09:14:58.725Z,101907.53
2022-08-05T09:17:43.109Z,101904.88
2022-08-05T09:20:36.709Z,101911.19
2022-08-05T09:23:09.242Z,101909.47
2022-08-05T09:26:03.155Z,101911.56
2022-08-05T09:28:32.282Z,101917.25
2022-08-05T09:31:22.592Z,101915.75
2022-08-05T09:33:52.755Z,101923.31
2022-08-05T09:36:20.834Z,101930.84
2022-08-05T09:38:58.732Z,101924.31
2022-08-05T09:41:26.475Z,101927.13
2022-08-05T09:43:59.658Z,101930.22
2022-08-05T09:46:30.205Z,101939.22
2022-08-05T09:49:08.260Z,101941.25
2022-08-05T09:51:45.149Z,101940.47
2022-08-05T09:54:21.417Z,101947.22
2022-08-05T09:56:57.519Z,101949.25
2022-08-05T09:59:27.657Z,101945.44
2022-08-05T10:01:57.941Z,101960.44
2022-08-05T10:04:36.045Z,101959.59
2022-08-05T10:07:20.945Z,101955.81
2022-08-05T10:10:04.283Z,101969.03
2022-08-05T10:12:49.586Z,101966.47
2022-08-05T10:15:25.730Z,101962.34
2022-08-05T10:18:11.071Z,101967.03
2022-08-05T10:20:44.053Z,101972.03
2022-08-05T10:23:34.730Z,101971.91
2022-08-05T10:26:02.797Z,101975.56
2022-08-05T10:28:30.734Z,101977.78
2022-08-05T10:32:52.972Z,101982.69
2022-08-05T10:33:52.207Z,101983.69
2022-08-05T10:36:23.587Z,101976.69
2022-08-05T10:38:59.155Z,101989.78
2022-08-05T10:41:45.243Z,101993.06
2022-08-05T10:44:19.019Z,101992.03
2022-08-05T10:46:50.681Z,102007.38
2022-08-05T10:49:27.147Z,102001.13
2022-08-05T10:52:00.369Z,102015.97
2022-08-05T10:54:47.130Z,102015.97
2022-08-05T10:57:32.287Z,102026.78
2022-08-05T11:00:23.259Z,102026.41
2022-08-05T11:03:23.785Z,102031.91
2022-08-05T11:06:15.087Z,102026.03
2022-08-05T11:09:32.211Z,102033.47
2022-08-05T11:12:26.734Z,102043.28
2022-08-05T11:15:19.103Z,102043.22
2022-08-05T11:17:59.587Z,102036.47
2022-08-05T11:20:37.256Z,102047.94
2022-08-05T11:24:02.819Z,102044.03
2022-08-05T11:26:33.398Z,102056.50
2022-08-05T11:29:11.841Z,102054.75
2022-08-05T11:31:58.580Z,102063.53
2022-08-05T11:34:37.811Z,102068.72
2022-08-05T11:38:14.326Z,102068.00
2022-08-05T11:39:55.304Z,102074.06
2022-08-05T11:42:27.942Z,102074.84
2022-08-05T11:45:02.536Z,102080.19
2022-08-05T11:47:49.613Z,102076.03
2022-08-05T11:50:18.449Z,102083.63
2022-08-05T11:52:46.212Z,102091.38
2022-08-05T11:55:16.659Z,102080.69
2022-08-05T11:58:10.568Z,102088.06
2022-08-05T12:00:38.655Z,102082.88
2022-08-05T12:03:28.638Z,102087.56
2022-08-05T12:06:00.057Z,102085.31
2022-08-05T12:08:27.055Z,102083.31
2022-08-05T12:10:57.816Z,102089.50
2022-08-05T12:13:47.591Z,102092.59
2022-08-05T12:16:18.913Z,102090.63
2022-08-05T12:18:49.013Z,102098.28
2022-08-05T12:21:23.719Z,102103.03
2022-08-05T12:23:57.798Z,102099.09
2022-08-05T12:26:31.723Z,102109.75
2022-08-05T12:29:01.515Z,102126.66
2022-08-05T12:31:33.487Z,102120.34
2022-08-05T12:34:14.578Z,102125.53
2022-08-05T12:36:48.396Z,102130.09
2022-08-05T12:39:17.491Z,102131.78
2022-08-05T12:41:45.534Z,102136.66
2022-08-05T12:44:21.720Z,102137.13
2022-08-05T12:47:00.401Z,102129.69
2022-08-05T12:50:03.565Z,102143.97
2022-08-05T12:52:30.390Z,102142.50
2022-08-05T12:55:15.726Z,102151.88
2022-08-05T12:58:38.696Z,102150.13
2022-08-05T13:02:00.355Z,102157.25
2022-08-05T13:03:18.670Z,102157.13
2022-08-05T13:05:47.520Z,102155.38
2022-08-05T13:08:18.850Z,102148.25
2022-08-05T13:10:50.776Z,102160.34
2022-08-05T13:14:05.169Z,102155.78
2022-08-05T13:16:15.476Z,102146.06
2022-08-05T13:18:51.382Z,102162.44
2022-08-05T13:21:18.210Z,102154.31
2022-08-05T13:23:50.892Z,102158.59
2022-08-05T13:26:20.928Z,102167.56
2022-08-05T13:28:57.125Z,102170.72
2022-08-05T13:31:33.879Z,102173.91
2022-08-05T13:34:24.420Z,102182.63
2022-08-05T13:36:52.736Z,102179.63
2022-08-05T13:40:13.415Z,102176.00
2022-08-05T13:42:06.889Z,102167.78
2022-08-05T13:44:34.807Z,102178.38
2022-08-05T13:47:08.304Z,102186.53
2022-08-05T13:49:35.692Z,102185.97
2022-08-05T13:52:11.524Z,102193.38
2022-08-05T13:54:38.856Z,102184.78
2022-08-05T13:57:06.923Z,102192.03
2022-08-05T13:59:34.629Z,102191.47
2022-08-05T14:02:05.250Z,102198.28
2022-08-05T14:04:54.211Z,102185.50
2022-08-05T14:07:56.255Z,102193.22
2022-08-05T14:10:11.472Z,102202.28
2022-08-05T14:12:38.363Z,102197.41
2022-08-05T14:16:04.741Z,102210.03
2022-08-05T14:17:57.794Z,102201.13
2022-08-05T14:20:27.598Z,102213.38
2022-08-05T14:22:54.935Z,102224.91
2022-08-05T14:25:28.150Z,102218.97
2022-08-05T14:27:55.803Z,102214.56
2022-08-05T14:30:23.112Z,102226.97
2022-08-05T14:32:53.721Z,102224.00
2022-08-05T14:35:22.848Z,102235.00
2022-08-05T14:37:52.289Z,102237.94
2022-08-05T14:40:24.322Z,102234.47
2022-08-05T14:42:51.525Z,102236.47
2022-08-05T14:45:18.977Z,102232.56
2022-08-05T14:48:04.204Z,102231.28
2022-08-05T14:50:33.365Z,102239.84
2022-08-05T14:53:06.937Z,102246.88
2022-08-05T14:55:39.421Z,102249.09
2022-08-05T14:58:12.002Z,102251.88
2022-08-05T15:00:57.888Z,102259.41
2022-08-05T15:03:27.392Z,102262.94
2022-08-05T15:06:06.915Z,102256.91
2022-08-05T15:09:01.330Z,102249.97
2022-08-05T15:11:52.626Z,102253.75
2022-08-05T15:14:34.009Z,102259.22
2022-08-05T15:17:00.073Z,102264.47
2022-08-05T15:19:26.856Z,102268.06
2022-08-05T15:21:57.943Z,102269.66
2022-08-05T15:24:27.487Z,102265.63
2022-08-05T15:26:55.823Z,102272.78
2022-08-05T15:29:22.841Z,102270.75
2022-08-05T15:31:52.994Z,102283.44
2022-08-05T15:34:33.065Z,102273.91
2022-08-05T15:37:06.303Z,102271.19
2022-08-05T15:40:59.324Z,102265.25
2022-08-05T15:42:50.302Z,102264.31
2022-08-05T15:45:07.453Z,102272.50
2022-08-05T15:47:36.739Z,102267.06
2022-08-05T15:50:07.253Z,102267.44
2022-08-05T15:52:53.303Z,102270.25
2022-08-05T15:55:24.988Z,102267.06
2022-08-05T15:58:09.776Z,102268.81
2022-08-05T16:00:50.991Z,102276.41
2022-08-05T16:03:32.842Z,102278.91
2022-08-05T16:06:01.127Z,102282.34
2022-08-05T16:08:31.021Z,102290.09
2022-08-05T16:10:57.869Z,102288.75
2022-08-05T16:13:34.268Z,102294.50
2022-08-05T16:16:02.108Z,102291.03
2022-08-05T16:18:30.411Z,102302.88
2022-08-05T16:20:58.664Z,102303.50
2022-08-05T16:23:53.073Z,102299.31
2022-08-05T16:26:26.121Z,102304.09
2022-08-05T16:28:54.380Z,102307.28
2022-08-05T16:31:22.090Z,102301.28
2022-08-05T16:33:49.670Z,102308.41
2022-08-05T16:36:20.480Z,102310.66
2022-08-05T16:38:55.054Z,102305.78
2022-08-05T16:42:14.736Z,102304.41
2022-08-05T16:44:09.956Z,102307.47
2022-08-05T16:46:41.088Z,102320.34
2022-08-05T16:49:09.969Z,102315.56
2022-08-05T16:51:42.679Z,102319.97
2022-08-05T16:54:27.187Z,102317.88
2022-08-05T16:56:57.214Z,102316.53
2022-08-05T16:59:24.054Z,102321.69
2022-08-05T17:01:55.935Z,102312.38
2022-08-05T17:04:26.680Z,102314.97
2022-08-05T17:06:55.505Z,102320.34
2022-08-05T17:09:23.828Z,102325.88
2022-08-05T17:11:55.909Z,102334.78
2022-08-05T17:14:36.742Z,102333.56
2022-08-05T17:17:06.710Z,102333.56
2022-08-05T17:19:43.842Z,102341.03
2022-08-05T17:22:17.837Z,102339.31
2022-08-05T17:24:58.045Z,102345.91
2022-08-05T17:27:26.313Z,102340.53
2022-08-05T17:30:00.669Z,102351.03
2022-08-05T17:32:29.712Z,102349.91
2022-08-05T17:34:58.237Z,102342.84
2022-08-05T17:37:40.305Z,102339.84
2022-08-05T17:40:13.114Z,102350.53
2022-08-05T17:42:41.754Z,102354.31
2022-08-05T17:45:20.626Z,102354.00
2022-08-05T17:47:53.571Z,102352.81
2022-08-05T17:50:22.752Z,102354.41
2022-08-05T17:52:56.337Z,102367.41
2022-08-05T17:55:34.425Z,102352.16
2022-08-05T17:58:09.328Z,102360.81
2022-08-05T18:00:39.893Z,102341.03
2022-08-05T18:03:11.703Z,102358.75
2022-08-05T18:05:53.584Z,102363.81
2022-08-05T18:08:21.117Z,102370.44
2022-08-05T18:10:49.211Z,102360.56
2022-08-05T18:13:16.479Z,102367.44
2022-08-05T18:15:45.679Z,102381.13
2022-08-05T18:18:16.211Z,102368.75
2022-08-05T18:20:43.933Z,102387.97
2022-08-05T18:23:14.134Z,102391.44
2022-08-05T18:25:45.380Z,102384.63
2022-08-05T18:28:16.195Z,102383.41
2022-08-05T18:30:44.020Z,102397.34
2022-08-05T18:33:13.751Z,102400.25
2022-08-05T18:35:59.874Z,102408.13
2022-08-05T18:38:28.773Z,102400.06
2022-08-05T18:41:55.077Z,102409.75
2022-08-05T18:43:48.605Z,102405.44
2022-08-05T18:46:20.239Z,102405.84
2022-08-05T18:48:47.855Z,102406.94
2022-08-05T18:52:03.028Z,102417.03
2022-08-05T18:54:24.123Z,102411.34
2022-08-05T18:56:52.026Z,102416.72
2022-08-05T18:59:43.620Z,102419.63
2022-08-05T19:02:11.194Z,102428.84
2022-08-05T19:05:01.076Z,102426.81
2022-08-05T19:07:45.983Z,102421.09
2022-08-05T19:10:13.937Z,102423.66
2022-08-05T19:12:40.754Z,102428.47
2022-08-05T19:15:10.680Z,102431.78
2022-08-05T19:18:08.441Z,102430.59
2022-08-05T19:20:36.772Z,102433.66
2022-08-05T19:23:08.050Z,102434.16
2022-08-05T19:25:39.121Z,102435.94
2022-08-05T19:28:10.460Z,102433.00
2022-08-05T19:30:38.683Z,102438.63
2022-08-05T19:33:07.941Z,102441.38
2022-08-05T19:35:57.419Z,102443.28
2022-08-05T19:38:24.586Z,102442.72
2022-08-05T19:40:53.742Z,102452.88
2022-08-05T19:44:04.685Z,102449.63
2022-08-05T19:46:16.873Z,102447.81
2022-08-05T19:48:55.733Z,102457.66
2022-08-05T19:51:56.386Z,102477.00
2022-08-05T19:54:26.928Z,102482.75
2022-08-05T19:56:57.283Z,102482.72
2022-08-05T19:59:59.648Z,102490.53
2022-08-05T20:02:12.507Z,102483.22
2022-08-05T20:04:43.104Z,102488.78
2022-08-05T20:07:13.714Z,102497.28
2022-08-05T20:09:54.673Z,102505.56
2022-08-05T20:12:24.150Z,102507.56
2022-08-05T20:14:52.392Z,102517.50
2022-08-05T20:17:23.641Z,102516.53
2022-08-05T20:19:50.958Z,102509.38
2022-08-05T20:22:24.157Z,102512.41
2022-08-05T20:24:53.781Z,102518.91
2022-08-05T20:27:21.126Z,102524.22
2022-08-05T20:29:58.346Z,102525.25
2022-08-05T20:32:27.747Z,102544.75
2022-08-05T20:34:54.952Z,102537.53
2022-08-05T20:38:06.639Z,102542.16
2022-08-05T20:40:10.251Z,102537.56
2022-08-05T20:42:37.640Z,102539.34
2022-08-05T20:45:07.321Z,102547.84
2022-08-05T20:47:40.097Z,102542.38
2022-08-05T20:50:08.734Z,102550.88
2022-08-05T20:52:39.315Z,102548.66
2022-08-05T20:55:54.831Z,102539.16
2022-08-05T20:57:57.137Z,102552.16
2022-08-05T21:00:44.355Z,102550.19
2022-08-05T21:03:12.571Z,102541.72
2022-08-05T21:05:53.535Z,102550.59
2022-08-05T21:08:33.100Z,102553.13
2022-08-05T21:11:10.435Z,102556.72
2022-08-05T21:13:48.523Z,102553.28
2022-08-05T21:16:29.666Z,102559.38
2022-08-05T21:19:00.547Z,102560.69
2022-08-05T21:21:43.740Z,102557.97
2022-08-05T21:24:12.830Z,102559.16
2022-08-05T21:26:41.446Z,102563.47
2022-08-05T21:29:10.099Z,102562.81
2022-08-05T21:31:43.517Z,102563.31
2022-08-05T21:34:12.388Z,102566.09
2022-08-05T21:36:39.347Z,102568.50
2022-08-05T21:39:09.549Z,102569.59
2022-08-05T21:41:41.158Z,102572.16
2022-08-05T21:44:07.962Z,102580.78
2022-08-05T21:46:37.954Z,102571.69
2022-08-05T21:49:10.068Z,102576.81
2022-08-05T21:52:16.558Z,102577.00
2022-08-05T21:54:42.981Z,102578.16
2022-08-05T21:57:30.933Z,102569.59
2022-08-05T22:00:06.262Z,102573.66
2022-08-05T22:02:39.958Z,102579.94
2022-08-05T22:05:09.698Z,102579.25
2022-08-05T22:07:40.436Z,102577.22
2022-08-05T22:10:27.016Z,102576.16
2022-08-05T22:12:55.028Z,102584.06
2022-08-05T22:16:01.747Z,102582.84
2022-08-05T22:18:11.441Z,102581.91
2022-08-05T22:20:38.890Z,102586.03
2022-08-05T22:24:01.946Z,102579.59
2022-08-05T22:26:32.095Z,102580.66
2022-08-05T22:29:00.678Z,102579.81
2022-08-05T22:31:30.131Z,102586.78
2022-08-05T22:34:00.947Z,102581.34
2022-08-05T22:36:28.995Z,102585.09
2022-08-05T22:38:57.380Z,102591.53
2022-08-05T22:42:09.459Z,102594.66
2022-08-05T22:44:18.950Z,102598.41
2022-08-05T22:46:46.167Z,102597.78
2022-08-05T22:50:17.611Z,102601.63
2022-08-05T22:52:06.362Z,102602.34
2022-08-05T22:54:36.373Z,102604.31
2022-08-05T22:57:03.855Z,102613.69
2022-08-05T22:59:42.626Z,102613.91
2022-08-05T23:02:16.808Z,102611.91
2022-08-05T23:04:51.929Z,102615.16
2022-08-05T23:07:19.480Z,102610.94
2022-08-05T23:09:58.281Z,102614.28
2022-08-05T23:12:32.497Z,102629.69
2022-08-05T23:15:00.495Z,102621.00
2022-08-05T23:17:34.092Z,102626.56
2022-08-05T23:20:16.604Z,102627.84
2022-08-05T23:22:47.342Z,102627.97
2022-08-05T23:25:52.911Z,102631.59
2022-08-05T23:28:06.735Z,102632.78
2022-08-05T23:30:39.962Z,102633.53
2022-08-05T23:33:22.616Z,102631.06
2022-08-05T23:35:56.080Z,102635.75
2022-08-05T23:38:23.427Z,102637.66
2022-08-05T23:40:53.044Z,102644.78
2022-08-05T23:43:25.731Z,102640.25
2022-08-05T23:46:05.171Z,102641.25
2022-08-05T23:48:47.389Z,102640.38
2022-08-05T23:51:53.552Z,102649.09
2022-08-05T23:54:25.089Z,102649.06
2022-08-05T23:56:54.509Z,102649.19
2022-08-05T23:59:21.732Z,102654.69
